createdAt,value
2019-06-20T00:00:51.779Z,0.00
2019-06-20T00:01:51.759Z,0.00
2019-06-20T00:02:51.719Z,0.00
2019-06-20T00:03:51.711Z,0.00
2019-06-20T00:04:51.666Z,0.00
2019-06-20T00:05:51.642Z,0.00
2019-06-20T00:06:51.598Z,0.00
2019-06-20T00:07:51.574Z,0.00
2019-06-20T00:08:51.551Z,0.00
2019-06-20T00:09:52.478Z,0.00
2019-06-20T00:10:51.496Z,0.00
2019-06-20T00:11:51.466Z,0.00
2019-06-20T00:13:00.327Z,0.00
2019-06-20T00:13:51.408Z,0.00
2019-06-20T00:14:51.373Z,0.00
2019-06-20T00:15:51.348Z,0.00
2019-06-20T00:16:51.320Z,0.00
2019-06-20T00:17:51.284Z,0.00
2019-06-20T00:18:51.259Z,0.00
2019-06-20T00:19:51.292Z,0.00
2019-06-20T00:20:51.207Z,0.00
2019-06-20T00:21:51.182Z,0.00
2019-06-20T00:22:51.161Z,0.00
2019-06-20T00:23:51.119Z,0.00
2019-06-20T00:24:51.088Z,0.00
2019-06-20T00:25:51.059Z,0.00
2019-06-20T00:26:51.031Z,0.00
2019-06-20T00:27:51.004Z,0.00
2019-06-20T00:28:50.973Z,0.00
2019-06-20T00:29:50.949Z,0.00
2019-06-20T00:30:50.915Z,0.00
2019-06-20T00:31:50.888Z,0.00
2019-06-20T00:32:50.855Z,0.00
2019-06-20T00:33:50.841Z,0.00
2019-06-20T00:34:50.799Z,0.00
2019-06-20T00:35:50.773Z,0.00
2019-06-20T00:36:51.432Z,0.00
2019-06-20T00:37:50.720Z,0.00
2019-06-20T00:38:50.679Z,0.00
2019-06-20T00:39:50.668Z,0.00
2019-06-20T00:40:50.633Z,0.00
2019-06-20T00:41:50.601Z,0.00
2019-06-20T00:42:50.571Z,0.00
2019-06-20T00:43:50.539Z,0.00
2019-06-20T00:44:50.515Z,0.00
2019-06-20T00:45:50.479Z,0.00
2019-06-20T00:46:50.449Z,0.00
2019-06-20T00:47:50.431Z,0.00
2019-06-20T00:48:50.399Z,0.00
2019-06-20T00:49:50.370Z,0.00
2019-06-20T00:50:50.338Z,0.00
2019-06-20T00:51:50.306Z,0.00
2019-06-20T00:52:50.283Z,0.00
2019-06-20T00:53:50.254Z,0.00
2019-06-20T00:54:50.236Z,0.00
2019-06-20T00:55:50.190Z,0.00
2019-06-20T00:56:50.178Z,0.00
2019-06-20T00:57:50.140Z,0.00
2019-06-20T00:58:50.122Z,0.00
2019-06-20T00:59:50.086Z,0.00
2019-06-20T01:00:50.047Z,0.00
2019-06-20T01:01:50.016Z,0.00
2019-06-20T01:02:49.992Z,0.00
2019-06-20T01:03:49.969Z,0.00
2019-06-20T01:04:49.932Z,0.00
2019-06-20T01:05:49.901Z,0.00
2019-06-20T01:06:49.887Z,0.00
2019-06-20T01:07:49.841Z,0.00
2019-06-20T01:08:49.821Z,0.00
2019-06-20T01:09:49.781Z,0.00
2019-06-20T01:10:49.756Z,0.00
2019-06-20T01:11:49.721Z,0.00
2019-06-20T01:12:49.692Z,0.00
2019-06-20T01:13:52.724Z,0.00
2019-06-20T01:14:49.641Z,0.00
2019-06-20T01:15:49.602Z,0.00
2019-06-20T01:16:49.600Z,0.00
2019-06-20T01:17:49.548Z,0.00
2019-06-20T01:18:49.521Z,0.00
2019-06-20T01:19:49.504Z,0.00
2019-06-20T01:20:49.465Z,0.00
2019-06-20T01:21:49.440Z,0.00
2019-06-20T01:22:49.414Z,0.00
2019-06-20T01:23:49.368Z,0.00
2019-06-20T01:24:49.345Z,0.00
2019-06-20T01:25:49.318Z,0.00
2019-06-20T01:26:49.293Z,0.00
2019-06-20T01:27:49.259Z,0.00
2019-06-20T01:28:49.227Z,0.00
2019-06-20T01:29:49.199Z,0.00
2019-06-20T01:30:49.167Z,0.00
2019-06-20T01:31:49.148Z,0.00
2019-06-20T01:32:49.121Z,0.00
2019-06-20T01:33:49.087Z,0.00
2019-06-20T01:34:49.049Z,0.00
2019-06-20T01:35:49.030Z,0.00
2019-06-20T01:36:48.990Z,0.00
2019-06-20T01:37:48.974Z,0.00
2019-06-20T01:38:48.934Z,0.00
2019-06-20T01:39:48.905Z,0.00
2019-06-20T01:40:48.878Z,0.00
2019-06-20T01:41:48.843Z,0.00
2019-06-20T01:42:48.818Z,0.00
2019-06-20T01:43:51.040Z,0.00
2019-06-20T01:44:48.754Z,0.00
2019-06-20T01:45:48.738Z,0.00
2019-06-20T01:46:48.699Z,0.00
2019-06-20T01:47:48.675Z,0.00
2019-06-20T01:48:48.637Z,0.00
2019-06-20T01:49:48.609Z,0.00
2019-06-20T01:50:48.583Z,0.00
2019-06-20T01:51:48.570Z,0.00
2019-06-20T01:52:48.515Z,0.00
2019-06-20T01:53:48.491Z,0.00
2019-06-20T01:54:48.481Z,0.00
2019-06-20T01:55:48.443Z,0.00
2019-06-20T01:56:48.401Z,0.00
2019-06-20T01:57:48.389Z,0.00
2019-06-20T01:58:48.351Z,0.00
2019-06-20T01:59:48.324Z,0.00
2019-06-20T02:00:48.292Z,0.00
2019-06-20T02:01:48.251Z,0.00
2019-06-20T02:02:48.227Z,0.00
2019-06-20T02:03:48.189Z,0.00
2019-06-20T02:04:48.170Z,0.00
2019-06-20T02:05:48.145Z,0.00
2019-06-20T02:06:48.110Z,0.00
2019-06-20T02:07:48.070Z,0.00
2019-06-20T02:08:48.055Z,0.00
2019-06-20T02:09:48.010Z,0.00
2019-06-20T02:10:48.016Z,0.00
2019-06-20T02:11:47.959Z,0.00
2019-06-20T02:12:47.935Z,0.00
2019-06-20T02:13:47.896Z,0.00
2019-06-20T02:14:47.875Z,0.00
2019-06-20T02:15:47.844Z,0.00
2019-06-20T02:16:47.810Z,0.00
2019-06-20T02:17:47.792Z,0.00
2019-06-20T02:18:47.751Z,0.00
2019-06-20T02:19:47.717Z,0.00
2019-06-20T02:20:47.711Z,0.00
2019-06-20T02:21:47.661Z,0.00
2019-06-20T02:22:47.628Z,0.00
2019-06-20T02:23:47.599Z,0.00
2019-06-20T02:24:47.578Z,0.00
2019-06-20T02:25:47.537Z,0.00
2019-06-20T02:26:47.511Z,0.00
2019-06-20T02:27:47.559Z,0.00
2019-06-20T02:28:47.452Z,0.00
2019-06-20T02:29:47.425Z,0.00
2019-06-20T02:30:47.393Z,0.00
2019-06-20T02:31:47.376Z,0.00
2019-06-20T02:32:47.342Z,0.00
2019-06-20T02:33:47.311Z,0.00
2019-06-20T02:34:47.278Z,0.00
2019-06-20T02:35:47.264Z,0.00
2019-06-20T02:36:47.225Z,0.00
2019-06-20T02:37:47.186Z,0.00
2019-06-20T02:38:47.163Z,0.00
2019-06-20T02:39:47.132Z,0.00
2019-06-20T02:40:47.101Z,0.00
2019-06-20T02:41:47.069Z,0.00
2019-06-20T02:42:47.030Z,0.00
2019-06-20T02:43:47.010Z,0.00
2019-06-20T02:44:46.978Z,0.00
2019-06-20T02:45:46.952Z,0.00
2019-06-20T02:46:46.918Z,0.00
2019-06-20T02:47:46.882Z,0.00
2019-06-20T02:48:46.867Z,0.00
2019-06-20T02:49:46.830Z,0.00
2019-06-20T02:50:46.798Z,0.00
2019-06-20T02:51:46.773Z,0.00
2019-06-20T02:52:46.741Z,0.00
2019-06-20T02:53:46.717Z,0.00
2019-06-20T02:54:46.687Z,0.00
2019-06-20T02:55:46.654Z,0.00
2019-06-20T02:56:46.624Z,0.00
2019-06-20T02:57:46.596Z,0.00
2019-06-20T02:58:46.563Z,0.00
2019-06-20T02:59:46.529Z,0.00
2019-06-20T03:00:46.509Z,0.00
2019-06-20T03:01:46.468Z,0.00
2019-06-20T03:02:46.442Z,0.00
2019-06-20T03:03:46.415Z,0.00
2019-06-20T03:04:46.383Z,0.00
2019-06-20T03:05:46.401Z,0.00
2019-06-20T03:06:46.352Z,0.00
2019-06-20T03:07:46.299Z,0.00
2019-06-20T03:08:46.273Z,0.00
2019-06-20T03:09:46.240Z,0.00
2019-06-20T03:10:46.209Z,0.00
2019-06-20T03:11:46.174Z,0.00
2019-06-20T03:12:46.140Z,0.00
2019-06-20T03:13:46.119Z,0.00
2019-06-20T03:14:46.089Z,0.00
2019-06-20T03:15:49.116Z,0.00
2019-06-20T03:16:46.026Z,0.00
2019-06-20T03:17:45.999Z,0.00
2019-06-20T03:18:45.986Z,0.00
2019-06-20T03:19:45.934Z,0.00
2019-06-20T03:20:45.906Z,0.00
2019-06-20T03:21:45.881Z,0.00
2019-06-20T03:22:45.860Z,0.00
2019-06-20T03:23:45.831Z,0.00
2019-06-20T03:24:45.791Z,0.00
2019-06-20T03:25:45.759Z,0.00
2019-06-20T03:26:45.725Z,0.00
2019-06-20T03:27:45.710Z,0.00
2019-06-20T03:28:45.674Z,0.00
2019-06-20T03:29:45.644Z,0.00
2019-06-20T03:30:45.624Z,0.00
2019-06-20T03:31:45.594Z,0.00
2019-06-20T03:32:45.557Z,0.00
2019-06-20T03:33:45.526Z,0.00
2019-06-20T03:34:45.511Z,0.00
2019-06-20T03:35:45.468Z,0.00
2019-06-20T03:36:45.441Z,0.00
2019-06-20T03:37:45.411Z,0.00
2019-06-20T03:38:45.381Z,0.00
2019-06-20T03:39:45.355Z,0.00
2019-06-20T03:40:45.322Z,0.00
2019-06-20T03:41:45.296Z,0.00
2019-06-20T03:42:45.266Z,0.00
2019-06-20T03:43:45.227Z,0.00
2019-06-20T03:44:58.391Z,0.00
2019-06-20T03:45:45.172Z,0.00
2019-06-20T03:46:45.146Z,0.00
2019-06-20T03:47:45.121Z,0.00
2019-06-20T03:48:45.084Z,0.00
2019-06-20T03:49:45.059Z,0.00
2019-06-20T03:50:45.030Z,0.00
2019-06-20T03:51:44.994Z,0.00
2019-06-20T03:52:44.982Z,0.00
2019-06-20T03:53:44.937Z,0.00
2019-06-20T03:54:44.911Z,0.00
2019-06-20T03:55:44.883Z,0.00
2019-06-20T03:56:44.864Z,0.00
2019-06-20T03:57:44.816Z,0.00
2019-06-20T03:58:44.795Z,0.00
2019-06-20T03:59:44.761Z,0.00
2019-06-20T04:00:44.737Z,0.00
2019-06-20T04:01:44.709Z,0.00
2019-06-20T04:02:44.682Z,0.00
2019-06-20T04:03:44.643Z,0.00
2019-06-20T04:04:44.628Z,0.00
2019-06-20T04:05:44.577Z,0.00
2019-06-20T04:06:44.567Z,0.00
2019-06-20T04:07:44.529Z,0.00
2019-06-20T04:08:44.573Z,0.00
2019-06-20T04:09:44.467Z,0.00
2019-06-20T04:10:44.437Z,0.00
2019-06-20T04:11:44.412Z,0.00
2019-06-20T04:12:44.383Z,0.00
2019-06-20T04:13:44.351Z,0.00
2019-06-20T04:14:44.337Z,0.00
2019-06-20T04:15:44.319Z,0.00
2019-06-20T04:16:44.278Z,0.00
2019-06-20T04:17:44.237Z,0.00
2019-06-20T04:18:44.212Z,0.00
2019-06-20T04:19:44.182Z,0.00
2019-06-20T04:20:44.146Z,0.00
2019-06-20T04:21:44.121Z,0.00
2019-06-20T04:22:44.093Z,0.00
2019-06-20T04:23:44.072Z,0.00
2019-06-20T04:24:44.037Z,0.00
2019-06-20T04:25:43.999Z,0.00
2019-06-20T04:26:43.970Z,0.00
2019-06-20T04:27:43.957Z,0.00
2019-06-20T04:28:43.917Z,0.00
2019-06-20T04:29:43.882Z,0.00
2019-06-20T04:30:43.865Z,0.00
2019-06-20T04:31:43.825Z,0.00
2019-06-20T04:32:43.798Z,0.00
2019-06-20T04:33:43.768Z,0.00
2019-06-20T04:34:43.743Z,0.00
2019-06-20T04:35:43.731Z,0.00
2019-06-20T04:36:43.679Z,0.00
2019-06-20T04:37:43.643Z,0.00
2019-06-20T04:38:43.618Z,0.00
2019-06-20T04:39:43.596Z,0.00
2019-06-20T04:40:43.565Z,0.00
2019-06-20T04:41:43.533Z,0.00
2019-06-20T04:42:43.503Z,0.00
2019-06-20T04:43:43.473Z,0.00
2019-06-20T04:44:43.453Z,0.00
2019-06-20T04:45:43.418Z,5.63
2019-06-20T04:46:43.383Z,5.63
2019-06-20T04:47:43.359Z,5.63
2019-06-20T04:48:43.335Z,5.63
2019-06-20T04:49:43.294Z,5.63
2019-06-20T04:50:43.271Z,5.63
2019-06-20T04:51:43.257Z,5.63
2019-06-20T04:52:43.213Z,5.63
2019-06-20T04:53:43.188Z,5.63
2019-06-20T04:54:43.154Z,5.63
2019-06-20T04:55:43.119Z,5.63
2019-06-20T04:56:43.096Z,5.63
2019-06-20T04:57:43.078Z,5.63
2019-06-20T04:58:43.036Z,5.63
2019-06-20T04:59:43.010Z,5.63
2019-06-20T05:00:42.981Z,5.63
2019-06-20T05:01:42.945Z,5.63
2019-06-20T05:02:42.926Z,5.63
2019-06-20T05:03:42.891Z,5.63
2019-06-20T05:04:42.861Z,5.63
2019-06-20T05:05:42.831Z,5.63
2019-06-20T05:06:42.815Z,5.63
2019-06-20T05:07:42.782Z,11.25
2019-06-20T05:08:42.750Z,11.25
2019-06-20T05:09:42.717Z,11.25
2019-06-20T05:10:42.691Z,11.25
2019-06-20T05:11:42.651Z,11.25
2019-06-20T05:12:42.625Z,11.25
2019-06-20T05:13:42.599Z,11.25
2019-06-20T05:14:42.565Z,11.25
2019-06-20T05:15:52.781Z,11.25
2019-06-20T05:16:42.517Z,11.25
2019-06-20T05:17:42.486Z,11.25
2019-06-20T05:18:42.456Z,11.25
2019-06-20T05:19:42.430Z,11.25
2019-06-20T05:20:42.400Z,11.25
2019-06-20T05:21:42.375Z,11.25
2019-06-20T05:22:42.338Z,11.25
2019-06-20T05:23:42.317Z,11.25
2019-06-20T05:24:42.295Z,11.25
2019-06-20T05:25:42.252Z,5.63
2019-06-20T05:26:42.230Z,5.63
2019-06-20T05:27:42.191Z,5.63
2019-06-20T05:28:42.161Z,5.63
2019-06-20T05:29:42.137Z,5.63
2019-06-20T05:30:42.102Z,5.63
2019-06-20T05:31:42.077Z,5.63
2019-06-20T05:32:42.051Z,5.63
2019-06-20T05:33:42.024Z,5.63
2019-06-20T05:34:41.991Z,11.25
2019-06-20T05:35:41.962Z,11.25
2019-06-20T05:36:41.932Z,11.25
2019-06-20T05:37:41.916Z,11.25
2019-06-20T05:38:41.876Z,11.25
2019-06-20T05:39:41.844Z,11.25
2019-06-20T05:40:41.847Z,11.25
2019-06-20T05:41:41.789Z,11.25
2019-06-20T05:42:41.755Z,11.25
2019-06-20T05:43:41.728Z,11.25
2019-06-20T05:44:41.704Z,11.25
2019-06-20T05:45:45.085Z,11.25
2019-06-20T05:46:41.652Z,5.63
2019-06-20T05:47:41.609Z,5.63
2019-06-20T05:48:41.585Z,5.63
2019-06-20T05:49:41.557Z,5.63
2019-06-20T05:50:41.529Z,5.63
2019-06-20T05:51:41.768Z,5.63
2019-06-20T05:52:41.479Z,5.63
2019-06-20T05:53:41.433Z,5.63
2019-06-20T05:54:41.408Z,5.63
2019-06-20T05:55:41.383Z,5.63
2019-06-20T05:56:41.362Z,5.63
2019-06-20T05:57:41.333Z,5.63
2019-06-20T05:58:41.302Z,5.63
2019-06-20T05:59:41.277Z,5.63
2019-06-20T06:00:41.240Z,5.63
2019-06-20T06:01:41.204Z,5.63
2019-06-20T06:02:41.175Z,5.63
2019-06-20T06:03:41.153Z,5.63
2019-06-20T06:04:41.120Z,5.63
2019-06-20T06:05:41.109Z,5.63
2019-06-20T06:06:41.067Z,5.63
2019-06-20T06:07:41.034Z,5.63
2019-06-20T06:08:41.008Z,5.63
2019-06-20T06:09:40.983Z,5.63
2019-06-20T06:10:41.346Z,5.63
2019-06-20T06:11:40.916Z,11.25
2019-06-20T06:12:40.900Z,11.25
2019-06-20T06:13:40.858Z,11.25
2019-06-20T06:14:40.834Z,5.63
2019-06-20T06:15:40.815Z,11.25
2019-06-20T06:16:44.038Z,11.25
2019-06-20T06:17:40.750Z,5.63
2019-06-20T06:18:40.715Z,5.63
2019-06-20T06:19:40.685Z,11.25
2019-06-20T06:20:43.821Z,11.25
2019-06-20T06:21:40.638Z,11.25
2019-06-20T06:22:44.386Z,11.25
2019-06-20T06:23:40.576Z,11.25
2019-06-20T06:24:40.557Z,11.25
2019-06-20T06:25:40.537Z,11.25
2019-06-20T06:26:40.482Z,11.25
2019-06-20T06:27:40.479Z,16.88
2019-06-20T06:28:40.425Z,16.88
2019-06-20T06:29:40.414Z,16.88
2019-06-20T06:30:40.411Z,16.88
2019-06-20T06:31:40.361Z,16.88
2019-06-20T06:32:40.772Z,16.88
2019-06-20T06:33:40.288Z,16.88
2019-06-20T06:34:40.261Z,16.88
2019-06-20T06:35:40.248Z,16.88
2019-06-20T06:36:40.190Z,16.88
2019-06-20T06:37:40.174Z,16.88
2019-06-20T06:38:40.135Z,22.50
2019-06-20T06:39:43.388Z,22.50
2019-06-20T06:40:40.080Z,22.50
2019-06-20T06:41:40.051Z,28.13
2019-06-20T06:42:40.026Z,28.13
2019-06-20T06:43:41.904Z,28.13
2019-06-20T06:44:39.966Z,28.13
2019-06-20T06:45:39.949Z,33.75
2019-06-20T06:46:44.865Z,33.75
2019-06-20T06:47:39.881Z,28.13
2019-06-20T06:48:39.853Z,28.13
2019-06-20T06:49:39.816Z,28.13
2019-06-20T06:50:39.820Z,28.13
2019-06-20T06:51:39.777Z,28.13
2019-06-20T06:52:39.762Z,28.13
2019-06-20T06:53:39.705Z,22.50
2019-06-20T06:54:39.681Z,22.50
2019-06-20T06:55:39.659Z,22.50
2019-06-20T06:56:39.630Z,22.50
2019-06-20T06:57:39.588Z,22.50
2019-06-20T06:58:39.575Z,22.50
2019-06-20T06:59:39.544Z,28.13
2019-06-20T07:00:39.512Z,22.50
2019-06-20T07:01:39.731Z,22.50
2019-06-20T07:02:39.454Z,22.50
2019-06-20T07:03:39.428Z,22.50
2019-06-20T07:04:39.426Z,28.13
2019-06-20T07:05:39.362Z,28.13
2019-06-20T07:06:39.351Z,28.13
2019-06-20T07:07:39.326Z,28.13
2019-06-20T07:08:39.283Z,28.13
2019-06-20T07:09:39.254Z,28.13
2019-06-20T07:10:39.233Z,28.13
2019-06-20T07:11:39.202Z,28.13
2019-06-20T07:12:39.209Z,28.13
2019-06-20T07:13:39.134Z,28.13
2019-06-20T07:14:42.629Z,28.13
2019-06-20T07:15:39.094Z,28.13
2019-06-20T07:16:39.059Z,28.13
2019-06-20T07:17:39.024Z,22.50
2019-06-20T07:18:39.008Z,22.50
2019-06-20T07:19:38.974Z,22.50
2019-06-20T07:20:38.948Z,22.50
2019-06-20T07:21:38.941Z,22.50
2019-06-20T07:22:38.956Z,22.50
2019-06-20T07:23:38.861Z,22.50
2019-06-20T07:24:38.830Z,22.50
2019-06-20T07:25:38.805Z,28.13
2019-06-20T07:26:38.789Z,22.50
2019-06-20T07:27:38.744Z,22.50
2019-06-20T07:28:38.718Z,22.50
2019-06-20T07:29:38.738Z,22.50
2019-06-20T07:30:38.667Z,22.50
2019-06-20T07:31:38.653Z,22.50
2019-06-20T07:32:38.609Z,22.50
2019-06-20T07:33:38.580Z,22.50
2019-06-20T07:34:38.554Z,22.50
2019-06-20T07:35:41.736Z,28.13
2019-06-20T07:36:38.525Z,28.13
2019-06-20T07:37:38.474Z,33.75
2019-06-20T07:38:38.446Z,33.75
2019-06-20T07:39:38.413Z,33.75
2019-06-20T07:40:38.383Z,28.13
2019-06-20T07:41:38.363Z,28.13
2019-06-20T07:42:38.326Z,28.13
2019-06-20T07:43:38.298Z,28.13
2019-06-20T07:44:38.270Z,28.13
2019-06-20T07:45:38.233Z,28.13
2019-06-20T07:46:38.215Z,28.13
2019-06-20T07:47:38.186Z,28.13
2019-06-20T07:48:38.151Z,28.13
2019-06-20T07:49:38.132Z,28.13
2019-06-20T07:50:39.457Z,33.75
2019-06-20T07:51:38.082Z,33.75
2019-06-20T07:52:38.052Z,33.75
2019-06-20T07:53:38.029Z,33.75
2019-06-20T07:54:38.025Z,33.75
2019-06-20T07:55:37.966Z,33.75
2019-06-20T07:56:37.951Z,33.75
2019-06-20T07:57:37.913Z,33.75
2019-06-20T07:58:37.875Z,33.75
2019-06-20T07:59:37.862Z,33.75
2019-06-20T08:00:37.829Z,33.75
2019-06-20T08:01:37.793Z,33.75
2019-06-20T08:02:37.763Z,33.75
2019-06-20T08:03:37.777Z,33.75
2019-06-20T08:04:37.709Z,28.13
2019-06-20T08:05:37.694Z,28.13
2019-06-20T08:06:37.645Z,28.13
2019-06-20T08:07:37.643Z,28.13
2019-06-20T08:08:37.616Z,28.13
2019-06-20T08:09:44.965Z,22.50
2019-06-20T08:10:37.547Z,22.50
2019-06-20T08:11:37.503Z,22.50
2019-06-20T08:12:37.491Z,28.13
2019-06-20T08:13:37.448Z,28.13
2019-06-20T08:14:37.427Z,28.13
2019-06-20T08:15:37.402Z,28.13
2019-06-20T08:16:37.370Z,28.13
2019-06-20T08:17:37.346Z,33.75
2019-06-20T08:18:37.373Z,28.13
2019-06-20T08:19:37.293Z,28.13
2019-06-20T08:20:37.262Z,33.75
2019-06-20T08:21:37.237Z,33.75
2019-06-20T08:22:37.203Z,39.38
2019-06-20T08:23:37.176Z,33.75
2019-06-20T08:24:37.152Z,33.75
2019-06-20T08:25:37.120Z,33.75
2019-06-20T08:26:37.103Z,33.75
2019-06-20T08:27:37.077Z,33.75
2019-06-20T08:28:37.058Z,33.75
2019-06-20T08:29:37.009Z,33.75
2019-06-20T08:30:36.991Z,39.38
2019-06-20T08:31:36.954Z,39.38
2019-06-20T08:32:36.928Z,39.38
2019-06-20T08:33:36.901Z,39.38
2019-06-20T08:34:36.877Z,39.38
2019-06-20T08:35:36.839Z,39.38
2019-06-20T08:36:36.824Z,39.38
2019-06-20T08:37:36.793Z,39.38
2019-06-20T08:38:36.764Z,39.38
2019-06-20T08:39:36.745Z,39.38
2019-06-20T08:40:36.707Z,45.00
2019-06-20T08:41:36.673Z,39.38
2019-06-20T08:42:36.646Z,39.38
2019-06-20T08:43:36.627Z,45.00
2019-06-20T08:44:36.605Z,45.00
2019-06-20T08:45:36.564Z,45.00
2019-06-20T08:46:36.545Z,45.00
2019-06-20T08:47:36.510Z,50.63
2019-06-20T08:48:36.489Z,56.25
2019-06-20T08:49:36.464Z,56.25
2019-06-20T08:50:36.428Z,56.25
2019-06-20T08:51:36.409Z,50.63
2019-06-20T08:52:36.378Z,50.63
2019-06-20T08:53:36.345Z,50.63
2019-06-20T08:54:36.374Z,45.00
2019-06-20T08:55:36.291Z,45.00
2019-06-20T08:56:36.272Z,45.00
2019-06-20T08:57:36.240Z,45.00
2019-06-20T08:58:36.215Z,39.38
2019-06-20T08:59:36.190Z,45.00
2019-06-20T09:00:36.162Z,50.63
2019-06-20T09:01:36.135Z,45.00
2019-06-20T09:02:36.150Z,45.00
2019-06-20T09:03:36.088Z,45.00
2019-06-20T09:04:36.056Z,45.00
2019-06-20T09:05:36.024Z,39.38
2019-06-20T09:06:36.006Z,45.00
2019-06-20T09:07:35.986Z,45.00
2019-06-20T09:08:35.944Z,45.00
2019-06-20T09:09:35.917Z,45.00
2019-06-20T09:10:35.893Z,39.38
2019-06-20T09:11:35.860Z,39.38
2019-06-20T09:12:35.835Z,33.75
2019-06-20T09:13:35.809Z,33.75
2019-06-20T09:14:35.780Z,33.75
2019-06-20T09:15:35.760Z,39.38
2019-06-20T09:16:35.735Z,45.00
2019-06-20T09:17:35.745Z,45.00
2019-06-20T09:18:35.671Z,45.00
2019-06-20T09:19:35.681Z,50.63
2019-06-20T09:20:35.621Z,50.63
2019-06-20T09:21:35.606Z,56.25
2019-06-20T09:22:35.560Z,56.25
2019-06-20T09:23:35.819Z,56.25
2019-06-20T09:24:35.506Z,61.88
2019-06-20T09:25:35.490Z,73.13
2019-06-20T09:26:35.462Z,67.50
2019-06-20T09:27:35.431Z,61.88
2019-06-20T09:28:35.402Z,56.25
2019-06-20T09:29:41.778Z,56.25
2019-06-20T09:30:35.367Z,50.63
2019-06-20T09:31:35.358Z,50.63
2019-06-20T09:32:35.297Z,45.00
2019-06-20T09:33:35.266Z,45.00
2019-06-20T09:34:35.245Z,45.00
2019-06-20T09:35:35.235Z,50.63
2019-06-20T09:36:35.202Z,50.63
2019-06-20T09:37:35.160Z,45.00
2019-06-20T09:38:35.143Z,50.63
2019-06-20T09:39:35.115Z,50.63
2019-06-20T09:40:35.091Z,50.63
2019-06-20T09:41:35.095Z,50.63
2019-06-20T09:42:36.861Z,56.25
2019-06-20T09:43:35.007Z,56.25
2019-06-20T09:44:34.987Z,56.25
2019-06-20T09:45:34.971Z,56.25
2019-06-20T09:46:34.931Z,61.88
2019-06-20T09:47:34.901Z,56.25
2019-06-20T09:48:34.882Z,56.25
2019-06-20T09:49:34.847Z,56.25
2019-06-20T09:50:34.828Z,50.63
2019-06-20T09:51:34.792Z,45.00
2019-06-20T09:52:34.766Z,45.00
2019-06-20T09:53:34.744Z,39.38
2019-06-20T09:54:34.722Z,39.38
2019-06-20T09:55:34.683Z,45.00
2019-06-20T09:56:34.675Z,50.63
2019-06-20T09:57:34.636Z,50.63
2019-06-20T09:58:34.627Z,45.00
2019-06-20T09:59:34.583Z,45.00
2019-06-20T10:00:34.570Z,39.38
2019-06-20T10:01:34.538Z,39.38
2019-06-20T10:02:34.507Z,39.38
2019-06-20T10:03:34.473Z,45.00
2019-06-20T10:04:34.481Z,39.38
2019-06-20T10:05:34.429Z,39.38
2019-06-20T10:06:34.414Z,39.38
2019-06-20T10:07:34.388Z,39.38
2019-06-20T10:08:34.369Z,39.38
2019-06-20T10:09:34.324Z,39.38
2019-06-20T10:10:34.291Z,45.00
2019-06-20T10:11:34.282Z,45.00
2019-06-20T10:12:34.238Z,45.00
2019-06-20T10:13:34.217Z,50.63
2019-06-20T10:14:34.190Z,50.63
2019-06-20T10:15:34.178Z,50.63
2019-06-20T10:16:45.372Z,56.25
2019-06-20T10:17:34.172Z,50.63
2019-06-20T10:18:34.095Z,56.25
2019-06-20T10:19:34.058Z,56.25
2019-06-20T10:20:34.037Z,56.25
2019-06-20T10:21:34.017Z,61.88
2019-06-20T10:22:33.968Z,73.13
2019-06-20T10:23:33.950Z,67.50
2019-06-20T10:24:33.931Z,61.88
2019-06-20T10:25:33.898Z,56.25
2019-06-20T10:26:37.549Z,56.25
2019-06-20T10:27:33.848Z,56.25
2019-06-20T10:28:33.823Z,50.63
2019-06-20T10:29:33.795Z,50.63
2019-06-20T10:30:33.759Z,45.00
2019-06-20T10:31:33.759Z,45.00
2019-06-20T10:32:33.720Z,50.63
2019-06-20T10:33:33.707Z,50.63
2019-06-20T10:34:33.665Z,50.63
2019-06-20T10:35:33.659Z,50.63
2019-06-20T10:36:33.607Z,56.25
2019-06-20T10:37:33.598Z,56.25
2019-06-20T10:38:33.556Z,61.88
2019-06-20T10:39:33.532Z,118.13
2019-06-20T10:40:33.506Z,135.00
2019-06-20T10:41:33.485Z,78.75
2019-06-20T10:42:33.451Z,106.88
2019-06-20T10:43:33.421Z,78.75
2019-06-20T10:44:33.401Z,106.88
2019-06-20T10:45:33.396Z,112.50
2019-06-20T10:46:33.351Z,118.13
2019-06-20T10:47:36.029Z,118.13
2019-06-20T10:48:33.302Z,118.13
2019-06-20T10:49:33.288Z,90.00
2019-06-20T10:50:33.271Z,67.50
2019-06-20T10:51:33.232Z,118.13
2019-06-20T10:52:33.201Z,95.63
2019-06-20T10:53:33.176Z,84.38
2019-06-20T10:54:33.150Z,84.38
2019-06-20T10:55:33.123Z,106.88
2019-06-20T10:56:33.096Z,112.50
2019-06-20T10:57:33.096Z,101.25
2019-06-20T10:58:33.083Z,112.50
2019-06-20T10:59:33.023Z,106.88
2019-06-20T11:00:33.002Z,84.38
2019-06-20T11:01:32.989Z,95.63
2019-06-20T11:02:32.952Z,50.63
2019-06-20T11:03:32.935Z,56.25
2019-06-20T11:04:32.903Z,67.50
2019-06-20T11:05:32.894Z,95.63
2019-06-20T11:06:32.851Z,112.50
2019-06-20T11:07:32.828Z,106.88
2019-06-20T11:08:32.804Z,112.50
2019-06-20T11:09:32.776Z,112.50
2019-06-20T11:10:32.760Z,106.88
2019-06-20T11:11:32.754Z,84.38
2019-06-20T11:12:42.914Z,78.75
2019-06-20T11:13:32.688Z,67.50
2019-06-20T11:14:32.655Z,112.50
2019-06-20T11:15:32.643Z,90.00
2019-06-20T11:16:32.653Z,73.13
2019-06-20T11:17:32.588Z,112.50
2019-06-20T11:18:32.583Z,95.63
2019-06-20T11:19:32.546Z,61.88
2019-06-20T11:20:32.521Z,56.25
2019-06-20T11:21:32.489Z,50.63
2019-06-20T11:22:32.467Z,106.88
2019-06-20T11:23:32.447Z,112.50
2019-06-20T11:24:32.436Z,106.88
2019-06-20T11:25:32.394Z,84.38
2019-06-20T11:26:32.369Z,73.13
2019-06-20T11:27:32.359Z,84.38
2019-06-20T11:28:32.373Z,95.63
2019-06-20T11:29:32.302Z,101.25
2019-06-20T11:30:44.830Z,61.88
2019-06-20T11:31:32.275Z,67.50
2019-06-20T11:32:32.265Z,84.38
2019-06-20T11:33:32.219Z,101.25
2019-06-20T11:34:32.197Z,129.38
2019-06-20T11:35:32.169Z,78.75
2019-06-20T11:36:32.136Z,61.88
2019-06-20T11:37:32.113Z,61.88
2019-06-20T11:38:32.121Z,67.50
2019-06-20T11:39:32.080Z,67.50
2019-06-20T11:40:32.043Z,67.50
2019-06-20T11:41:32.057Z,61.88
2019-06-20T11:42:32.012Z,56.25
2019-06-20T11:43:31.970Z,45.00
2019-06-20T11:44:31.963Z,45.00
2019-06-20T11:45:31.950Z,45.00
2019-06-20T11:46:31.943Z,45.00
2019-06-20T11:47:31.890Z,50.63
2019-06-20T11:48:31.850Z,50.63
2019-06-20T11:49:31.844Z,50.63
2019-06-20T11:50:31.854Z,50.63
2019-06-20T11:51:31.785Z,56.25
2019-06-20T11:52:35.355Z,56.25
2019-06-20T11:53:31.852Z,50.63
2019-06-20T11:54:32.794Z,45.00
2019-06-20T11:55:31.746Z,39.38
2019-06-20T11:56:31.665Z,33.75
2019-06-20T11:57:31.650Z,33.75
2019-06-20T11:58:31.656Z,33.75
2019-06-20T11:59:31.589Z,33.75
2019-06-20T12:00:31.584Z,39.38
2019-06-20T12:01:33.128Z,39.38
2019-06-20T12:02:31.542Z,45.00
2019-06-20T12:03:31.489Z,45.00
2019-06-20T12:04:31.470Z,45.00
2019-06-20T12:05:31.441Z,39.38
2019-06-20T12:06:31.406Z,39.38
2019-06-20T12:07:31.430Z,39.38
2019-06-20T12:08:31.363Z,39.38
2019-06-20T12:09:31.338Z,33.75
2019-06-20T12:10:31.350Z,33.75
2019-06-20T12:11:31.287Z,28.13
2019-06-20T12:12:31.265Z,22.50
2019-06-20T12:13:31.247Z,22.50
2019-06-20T12:14:31.242Z,22.50
2019-06-20T12:15:31.182Z,22.50
2019-06-20T12:16:31.176Z,22.50
2019-06-20T12:17:31.145Z,16.88
2019-06-20T12:18:31.110Z,16.88
2019-06-20T12:19:31.087Z,16.88
2019-06-20T12:20:31.072Z,16.88
2019-06-20T12:21:31.036Z,11.25
2019-06-20T12:22:31.016Z,11.25
2019-06-20T12:23:30.978Z,11.25
2019-06-20T12:24:30.970Z,11.25
2019-06-20T12:25:30.956Z,11.25
2019-06-20T12:26:30.921Z,11.25
2019-06-20T12:27:30.873Z,11.25
2019-06-20T12:28:30.853Z,11.25
2019-06-20T12:29:30.844Z,11.25
2019-06-20T12:30:30.802Z,11.25
2019-06-20T12:31:30.768Z,5.63
2019-06-20T12:32:30.774Z,5.63
2019-06-20T12:33:30.741Z,5.63
2019-06-20T12:34:30.709Z,5.63
2019-06-20T12:35:30.701Z,5.63
2019-06-20T12:36:30.650Z,5.63
2019-06-20T12:37:30.634Z,5.63
2019-06-20T12:38:30.608Z,5.63
2019-06-20T12:39:30.592Z,5.63
2019-06-20T12:40:30.531Z,5.63
2019-06-20T12:41:30.519Z,5.63
2019-06-20T12:42:30.498Z,5.63
2019-06-20T12:43:30.460Z,5.63
2019-06-20T12:44:30.447Z,5.63
2019-06-20T12:45:30.424Z,5.63
2019-06-20T12:46:30.383Z,5.63
2019-06-20T12:47:30.367Z,5.63
2019-06-20T12:48:30.334Z,5.63
2019-06-20T12:49:30.303Z,5.63
2019-06-20T12:50:30.278Z,5.63
2019-06-20T12:51:30.246Z,5.63
2019-06-20T12:52:30.215Z,5.63
2019-06-20T12:53:30.194Z,11.25
2019-06-20T12:54:30.393Z,11.25
2019-06-20T12:55:30.129Z,11.25
2019-06-20T12:56:30.114Z,16.88
2019-06-20T12:57:30.079Z,16.88
2019-06-20T12:58:30.059Z,16.88
2019-06-20T12:59:30.022Z,11.25
2019-06-20T13:00:30.000Z,11.25
2019-06-20T13:01:36.815Z,11.25
2019-06-20T13:02:29.953Z,11.25
2019-06-20T13:03:29.910Z,5.63